Time;durP1;ratioP1;P1;durP2;ratioP2;P2;SDS_P1;SDS_P2;PMS_P1;PMS_P2;Temp;Humidity;BMP_temperature;BMP_pressure;BME280_temperature;BME280_humidity;BME280_pressure;Samples;Min_cycle;Max_cycle;Signal;HPM_P1;HPM_P2
2022/06/30 00:01:44;;;;;;;4.70;2.65;;;;;;;20.91;76.94;101275.50;5046428;28;20025;-74
2022/06/30 00:04:09;;;;;;;2.85;2.22;;;;;;;20.87;76.18;101271.56;5042169;28;20390;-74
2022/06/30 00:06:35;;;;;;;3.90;2.33;;;;;;;20.81;76.70;101267.03;5043881;28;20032;-74
2022/06/30 00:09:00;;;;;;;2.47;2.28;;;;;;;20.74;77.21;101260.84;5048997;28;20053;-74
2022/06/30 00:11:25;;;;;;;6.55;2.38;;;;;;;20.74;76.86;101259.00;5041500;28;20516;-74
2022/06/30 00:13:51;;;;;;;2.47;2.22;;;;;;;20.71;76.06;101258.59;5041525;28;20025;-74
2022/06/30 00:16:17;;;;;;;3.58;2.15;;;;;;;20.75;75.78;101265.16;5045221;28;20696;-74
2022/06/30 00:18:42;;;;;;;6.03;2.35;;;;;;;20.77;75.76;101265.78;5039181;28;20064;-74
2022/06/30 00:21:09;;;;;;;3.53;2.22;;;;;;;20.71;75.99;101269.31;5037816;28;20117;-74
2022/06/30 00:23:34;;;;;;;3.20;2.17;;;;;;;20.63;76.33;101248.06;5042776;28;20021;-74
2022/06/30 00:26:00;;;;;;;2.25;1.90;;;;;;;20.76;76.50;101264.16;5042902;28;20047;-74
2022/06/30 00:29:16;;;;;;;2.15;1.25;;;;;;;20.77;76.66;101265.78;5046925;28;20155;-73
2022/06/30 00:31:44;;;;;;;2.80;2.08;;;;;;;20.80;76.65;101272.63;5037660;28;20029;-74
2022/06/30 00:34:09;;;;;;;2.65;2.28;;;;;;;20.77;76.81;101268.47;5048843;28;20076;-74
2022/06/30 00:36:35;;;;;;;5.00;2.75;;;;;;;20.63;76.94;101258.78;5040954;28;20029;-74
2022/06/30 00:39:00;;;;;;;3.00;2.55;;;;;;;20.58;77.48;101263.94;5045346;28;20025;-74
2022/06/30 00:41:25;;;;;;;3.50;2.50;;;;;;;20.51;78.05;101259.38;5029432;28;20409;-73
2022/06/30 00:43:51;;;;;;;3.92;2.08;;;;;;;20.38;78.42;101262.03;5041530;28;20485;-73
2022/06/30 00:46:16;;;;;;;5.63;2.58;;;;;;;20.38;79.24;101271.94;5043159;28;20534;-74
2022/06/30 00:48:43;;;;;;;3.58;2.95;;;;;;;20.25;79.77;101272.75;5043914;28;20072;-74
2022/06/30 00:51:09;;;;;;;5.93;3.95;;;;;;;20.19;81.40;101268.22;5046890;28;20104;-72
2022/06/30 00:53:37;;;;;;;5.55;3.92;;;;;;;20.04;82.14;101271.06;5041486;28;20103;-74
2022/06/30 00:56:04;;;;;;;5.85;3.85;;;;;;;19.82;82.36;101255.13;5041969;28;20473;-73
2022/06/30 00:58:34;;;;;;;5.40;3.65;;;;;;;19.70;83.51;101249.50;5044834;28;20027;-73
2022/06/30 01:01:04;;;;;;;7.13;4.20;;;;;;;19.77;83.53;101270.13;5049544;28;20108;-73
2022/06/30 01:03:33;;;;;;;3.90;3.30;;;;;;;19.70;82.49;101265.56;5056113;28;20025;-73
2022/06/30 01:06:00;;;;;;;4.15;3.58;;;;;;;19.70;82.58;101264.75;5045617;28;20111;-73
2022/06/30 01:08:26;;;;;;;5.82;3.92;;;;;;;19.56;82.09;101263.84;5043833;28;20028;-73
2022/06/30 01:13:35;;;;;;;5.75;4.25;;;;;;;19.53;82.63;101256.22;5039573;28;20035;-74
2022/06/30 01:16:01;;;;;;;8.75;3.47;;;;;;;19.45;82.59;101246.50;5043046;28;20029;-73
2022/06/30 01:18:26;;;;;;;4.25;3.55;;;;;;;19.38;82.29;101260.88;5041522;28;20028;-73
2022/06/30 01:20:52;;;;;;;4.70;3.92;;;;;;;19.24;82.86;101255.44;5040510;28;20036;-73
2022/06/30 01:23:17;;;;;;;5.50;3.63;;;;;;;19.17;82.52;101251.91;5042226;28;20041;-73
2022/06/30 01:25:43;;;;;;;6.95;4.07;;;;;;;19.09;82.07;101246.72;5037696;28;20029;-74
2022/06/30 01:28:09;;;;;;;7.05;4.40;;;;;;;19.09;81.60;101242.19;5040281;28;20488;-74
2022/06/30 01:30:35;;;;;;;4.53;4.00;;;;;;;19.08;81.48;101250.44;5043800;28;20044;-73
2022/06/30 01:33:00;;;;;;;4.88;3.55;;;;;;;19.07;81.65;101251.44;5040264;28;20809;-74
2022/06/30 01:35:26;;;;;;;5.10;3.53;;;;;;;19.02;80.48;101248.53;5037943;28;20143;-73
2022/06/30 01:37:53;;;;;;;5.32;3.80;;;;;;;19.05;81.65;101246.31;5025287;28;20359;-73
2022/06/30 01:40:21;;;;;;;4.30;3.15;;;;;;;19.05;80.75;101240.94;5042164;28;20052;-74
2022/06/30 01:42:46;;;;;;;2.88;2.35;;;;;;;18.99;81.08;101228.34;5037170;28;20021;-73
2022/06/30 01:45:12;;;;;;;3.67;2.60;;;;;;;19.03;80.71;101239.47;5038861;28;20041;-74
2022/06/30 01:47:38;;;;;;;4.15;2.08;;;;;;;19.01;80.46;101230.81;5040261;28;20560;-73
2022/06/30 01:50:05;;;;;;;3.22;2.15;;;;;;;19.10;81.02;101243.03;5035736;28;20049;-73
2022/06/30 01:52:31;;;;;;;6.18;2.58;;;;;;;19.12;80.99;101243.66;5038640;28;20036;-74
2022/06/30 01:54:56;;;;;;;3.00;2.03;;;;;;;19.13;80.73;101245.31;5036747;28;20025;-73
2022/06/30 01:57:21;;;;;;;3.08;2.33;;;;;;;19.15;81.01;101234.41;5037309;28;20057;-73
2022/06/30 01:59:47;;;;;;;2.67;2.03;;;;;;;19.07;80.19;101238.06;5043998;28;20028;-73
2022/06/30 02:02:12;;;;;;;3.17;2.40;;;;;;;19.02;80.24;101219.94;5037820;28;20025;-74
2022/06/30 02:04:46;;;;;;;2.95;1.95;;;;;;;19.10;80.79;101221.63;5038172;28;20055;-73
2022/06/30 02:07:12;;;;;;;2.95;1.40;;;;;;;19.09;80.22;101225.31;5038253;28;20067;-74
2022/06/30 02:09:37;;;;;;;4.85;1.85;;;;;;;18.90;80.29;101200.09;5039417;28;20025;-73
2022/06/30 02:14:47;;;;;;;2.50;1.98;;;;;;;18.92;79.88;101203.41;5037798;28;20029;-73
2022/06/30 02:17:12;;;;;;;4.68;2.00;;;;;;;19.02;79.57;101224.47;5024873;28;20030;-73
2022/06/30 02:19:38;;;;;;;3.97;2.10;;;;;;;18.91;80.17;101213.28;5037910;28;20029;-73
2022/06/30 02:22:03;;;;;;;8.02;2.50;;;;;;;18.84;79.88;101215.09;5037902;28;20371;-72
2022/06/30 02:24:29;;;;;;;2.25;1.70;;;;;;;18.80;79.69;101227.19;5034712;28;20032;-72
2022/06/30 02:26:54;;;;;;;2.13;1.90;;;;;;;18.72;80.49;101224.63;5040581;28;20071;-73
2022/06/30 02:29:20;;;;;;;2.45;1.67;;;;;;;18.73;80.60;101217.44;5038170;28;20033;-73
2022/06/30 02:31:45;;;;;;;1.90;1.45;;;;;;;18.67;80.25;101208.34;5039857;28;20144;-73
2022/06/30 02:34:10;;;;;;;2.78;2.10;;;;;;;18.69;80.37;101219.69;5036646;28;20412;-72
2022/06/30 02:36:36;;;;;;;3.63;1.90;;;;;;;18.59;80.65;101213.84;5038022;28;20122;-72
2022/06/30 02:39:01;;;;;;;2.83;1.65;;;;;;;18.52;81.20;101216.47;5041846;28;20026;-73
2022/06/30 02:41:26;;;;;;;3.60;2.30;;;;;;;18.44;80.94;101217.44;5036019;28;20511;-73
2022/06/30 02:43:52;;;;;;;6.28;2.10;;;;;;;18.43;80.42;101210.44;5037000;28;20078;-73
2022/06/30 02:46:18;;;;;;;3.38;1.98;;;;;;;18.43;80.51;101213.09;5037396;28;20032;-73
2022/06/30 02:48:44;;;;;;;2.42;2.10;;;;;;;18.40;79.96;101208.16;5036653;28;20401;-73
2022/06/30 02:51:10;;;;;;;2.70;1.73;;;;;;;18.38;79.91;101218.22;5036568;28;20108;-72
2022/06/30 02:53:35;;;;;;;2.13;1.38;;;;;;;18.27;79.47;101192.00;5041346;28;20540;-72
2022/06/30 02:56:01;;;;;;;2.78;1.70;;;;;;;18.34;79.92;101200.09;5033519;28;20061;-72
2022/06/30 02:58:26;;;;;;;2.67;2.17;;;;;;;18.36;79.55;101206.06;5038367;28;20355;-72
2022/06/30 03:00:52;;;;;;;2.45;1.73;;;;;;;18.28;79.74;101207.00;5041036;28;20053;-73
2022/06/30 03:03:17;;;;;;;2.38;1.58;;;;;;;18.24;79.87;101206.56;5038409;28;20083;-72
2022/06/30 03:05:42;;;;;;;2.05;1.55;;;;;;;18.25;80.10;101207.41;5038975;28;20048;-72
2022/06/30 03:08:08;;;;;;;7.13;2.08;;;;;;;18.22;79.90;101203.25;5037021;28;20025;-72
2022/06/30 03:10:33;;;;;;;2.63;1.60;;;;;;;18.27;79.59;101205.38;5036605;28;20401;-71
2022/06/30 03:12:58;;;;;;;2.83;1.73;;;;;;;18.23;80.01;101198.75;5038535;28;20017;-71
2022/06/30 03:15:24;;;;;;;2.33;1.83;;;;;;;18.22;80.42;101197.91;5031904;28;20017;-73
2022/06/30 03:17:50;;;;;;;3.67;1.95;;;;;;;18.21;80.02;101201.59;5036804;28;20737;-73
2022/06/30 03:20:15;;;;;;;2.00;1.55;;;;;;;18.24;80.45;101205.75;5035731;28;20037;-73
2022/06/30 03:22:40;;;;;;;2.55;1.70;;;;;;;18.20;81.04;101209.81;5036119;28;20033;-73
2022/06/30 03:25:07;;;;;;;2.45;1.60;;;;;;;18.15;80.09;101202.38;5036834;28;20112;-73
2022/06/30 03:27:33;;;;;;;1.70;1.35;;;;;;;18.11;80.63;101201.09;5019385;28;20021;-73
2022/06/30 03:29:58;;;;;;;5.00;1.70;;;;;;;18.13;80.95;101182.22;5037934;28;20052;-73
2022/06/30 03:32:24;;;;;;;3.67;2.00;;;;;;;18.19;80.95;101198.31;5044850;28;20025;-72
2022/06/30 03:34:49;;;;;;;4.88;1.80;;;;;;;18.08;81.62;101185.47;5040264;28;20535;-73
2022/06/30 03:37:15;;;;;;;4.30;1.58;;;;;;;18.15;80.39;101196.22;5039498;28;20802;-73
2022/06/30 03:39:40;;;;;;;3.10;1.65;;;;;;;18.11;80.50;101197.59;5036090;28;20032;-73
2022/06/30 03:42:06;;;;;;;1.85;1.60;;;;;;;18.07;80.68;101199.81;5036772;28;20112;-73
2022/06/30 03:44:31;;;;;;;3.25;1.75;;;;;;;17.93;80.98;101182.84;5035666;28;20481;-73
2022/06/30 03:46:57;;;;;;;3.75;1.58;;;;;;;17.96;80.94;101195.81;5019367;28;20029;-73
2022/06/30 03:49:23;;;;;;;3.75;1.73;;;;;;;17.92;80.69;101199.91;5035266;28;20398;-73
2022/06/30 03:51:48;;;;;;;2.25;1.35;;;;;;;17.88;81.18;101190.63;5036561;28;20025;-73
2022/06/30 03:54:13;;;;;;;2.72;1.40;;;;;;;17.93;80.81;101190.03;5033859;28;20560;-73
2022/06/30 03:56:39;;;;;;;6.03;1.52;;;;;;;17.96;81.54;101198.47;5036581;28;20444;-72
2022/06/30 03:59:04;;;;;;;4.75;1.58;;;;;;;17.94;80.70;101195.16;5037116;28;20017;-73
2022/06/30 04:01:29;;;;;;;2.13;1.30;;;;;;;17.93;81.07;101190.88;5035974;28;20095;-73
2022/06/30 04:03:55;;;;;;;2.75;1.88;;;;;;;18.04;80.77;101194.88;5022050;28;20080;-72
2022/06/30 04:06:20;;;;;;;1.75;1.25;;;;;;;18.07;80.67;101200.66;5035092;28;20144;-72
2022/06/30 04:08:46;;;;;;;2.30;1.52;;;;;;;18.09;81.13;101187.97;5036764;28;20021;-73
2022/06/30 04:11:11;;;;;;;1.83;1.50;;;;;;;17.92;80.51;101167.00;5034624;28;20071;-73
2022/06/30 04:13:37;;;;;;;3.55;1.33;;;;;;;18.04;80.85;101186.88;5015631;28;20037;-73
2022/06/30 04:16:02;;;;;;;1.77;1.15;;;;;;;18.03;80.94;101198.53;5035151;28;20025;-73
2022/06/30 04:18:28;;;;;;;3.17;1.88;;;;;;;18.00;80.06;101189.06;5022900;28;20032;-73
2022/06/30 04:20:53;;;;;;;2.47;1.65;;;;;;;18.04;81.09;101193.03;5038650;28;20444;-73
2022/06/30 04:23:18;;;;;;;2.83;1.38;;;;;;;18.05;80.51;101180.50;5036069;28;20029;-73
2022/06/30 04:25:44;;;;;;;1.75;1.52;;;;;;;18.02;80.85;101179.03;5033122;28;20029;-72
2022/06/30 04:28:09;;;;;;;1.90;1.60;;;;;;;17.96;80.69;101185.13;5033190;28;20056;-72
2022/06/30 04:33:18;;;;;;;1.95;1.60;;;;;;;18.05;81.54;101178.66;5039865;28;20059;-72
2022/06/30 04:35:44;;;;;;;2.08;1.48;;;;;;;17.82;81.41;101128.13;5032764;28;20041;-73
2022/06/30 04:38:09;;;;;;;4.60;1.70;;;;;;;18.12;81.28;101164.53;5033507;28;20056;-73
2022/06/30 04:43:18;;;;;;;2.05;1.30;;;;;;;18.15;80.62;101167.66;5036949;28;20519;-73
2022/06/30 04:45:44;;;;;;;1.80;1.40;;;;;;;18.08;80.57;101154.22;5035893;28;20038;-73
2022/06/30 04:48:09;;;;;;;1.90;1.38;;;;;;;18.21;81.22;101160.72;5039198;28;20091;-73
2022/06/30 04:50:35;;;;;;;1.27;1.10;;;;;;;18.30;81.28;101168.38;5037344;28;20033;-72
2022/06/30 04:53:00;;;;;;;1.85;1.52;;;;;;;18.38;80.79;101162.09;5037943;28;20124;-72
2022/06/30 04:55:26;;;;;;;3.13;2.13;;;;;;;18.45;79.83;101160.28;5039374;28;21241;-72
2022/06/30 04:57:51;;;;;;;2.45;1.50;;;;;;;18.49;79.84;101150.88;5038130;28;20025;-72
2022/06/30 05:00:17;;;;;;;3.13;1.38;;;;;;;18.80;80.38;101152.31;5035639;28;20025;-73
2022/06/30 05:02:42;;;;;;;1.15;0.88;;;;;;;18.91;79.53;101157.13;5034225;28;20026;-72
2022/06/30 05:05:08;;;;;;;3.92;1.98;;;;;;;18.99;79.08;101157.97;5032796;28;20030;-72
2022/06/30 05:07:33;;;;;;;2.28;1.85;;;;;;;19.03;78.19;101144.03;5032286;28;20033;-72
2022/06/30 05:09:59;;;;;;;2.20;1.60;;;;;;;19.19;77.81;101145.53;5034058;28;20513;-73
2022/06/30 05:12:24;;;;;;;1.88;1.45;;;;;;;19.11;78.22;101143.84;5038172;28;20140;-70
2022/06/30 05:14:50;;;;;;;2.55;1.45;;;;;;;19.20;78.51;101143.66;5033069;28;20505;-72
2022/06/30 05:17:15;;;;;;;3.63;1.70;;;;;;;19.32;78.64;101152.78;5032607;28;20034;-73
2022/06/30 05:19:41;;;;;;;2.13;1.48;;;;;;;19.46;77.91;101153.66;5031965;28;20458;-73
2022/06/30 05:22:06;;;;;;;2.03;1.50;;;;;;;19.55;77.54;101160.47;5029280;28;20033;-72
2022/06/30 05:27:16;;;;;;;3.00;1.60;;;;;;;19.62;78.05;101166.69;5033409;28;20697;-73
2022/06/30 05:29:41;;;;;;;4.10;1.77;;;;;;;19.62;77.84;101150.63;5033386;28;20339;-73
2022/06/30 05:32:08;;;;;;;1.40;1.08;;;;;;;19.86;78.00;101165.31;5014669;28;20029;-73
2022/06/30 05:34:34;;;;;;;2.00;1.30;;;;;;;19.89;77.23;101172.94;5033447;28;20435;-74
2022/06/30 05:36:59;;;;;;;3.50;1.42;;;;;;;20.02;76.37;101164.09;5032497;28;20559;-74
2022/06/30 05:39:25;;;;;;;1.80;1.40;;;;;;;20.17;76.56;101157.72;5031404;28;20030;-73
2022/06/30 05:42:19;;;;;;;1.58;1.42;;;;;;;20.37;75.28;101163.91;5023975;28;20152;-73
2022/06/30 05:44:45;;;;;;;2.13;1.48;;;;;;;20.49;74.97;101153.34;5027626;28;20046;-73
2022/06/30 05:47:11;;;;;;;2.30;1.90;;;;;;;20.33;75.04;101154.63;5031862;28;20045;-74
2022/06/30 05:49:37;;;;;;;2.25;1.50;;;;;;;20.54;74.73;101148.22;5033281;28;20436;-74
2022/06/30 05:52:03;;;;;;;1.95;1.35;;;;;;;20.63;74.08;101148.84;5031076;28;20033;-74
2022/06/30 05:54:29;;;;;;;1.52;1.25;;;;;;;20.61;73.68;101153.59;5029895;28;20025;-75
2022/06/30 05:56:54;;;;;;;1.90;1.50;;;;;;;20.59;73.80;101151.13;5025981;28;20650;-74
2022/06/30 05:59:20;;;;;;;2.40;1.63;;;;;;;20.46;74.47;101146.56;5025148;28;20044;-74
2022/06/30 06:01:45;;;;;;;2.40;1.50;;;;;;;20.54;74.18;101151.72;5032235;28;20025;-73
2022/06/30 06:24:21;;;;;;;5.65;1.67;;;;;;;20.70;74.69;101171.91;5035434;28;20044;-74
2022/06/30 06:26:50;;;;;;;4.20;2.17;;;;;;;20.83;75.33;101184.50;5022570;28;20476;-73
2022/06/30 06:29:18;;;;;;;3.13;1.70;;;;;;;20.82;74.94;101174.81;5036380;28;20043;-73
2022/06/30 06:31:43;;;;;;;1.98;1.45;;;;;;;21.01;74.44;101180.31;5034842;28;20021;-73
2022/06/30 06:34:09;;;;;;;3.30;1.80;;;;;;;21.14;73.66;101174.91;5033082;28;20146;-73
2022/06/30 06:36:35;;;;;;;3.42;1.90;;;;;;;21.33;73.49;101168.63;5038019;28;20442;-73
2022/06/30 06:39:01;;;;;;;2.70;1.85;;;;;;;21.83;72.35;101167.16;5034659;28;20173;-73
2022/06/30 06:41:29;;;;;;;2.50;1.80;;;;;;;22.02;71.00;101163.53;5035425;28;20021;-73
2022/06/30 06:43:54;;;;;;;2.50;1.92;;;;;;;22.16;70.96;101167.72;5037982;28;20496;-74
2022/06/30 06:46:26;;;;;;;4.25;2.22;;;;;;;21.86;71.33;101161.34;5034726;28;20028;-73
2022/06/30 06:48:52;;;;;;;2.25;1.30;;;;;;;22.47;71.96;101163.38;5037849;28;20482;-73
2022/06/30 06:51:17;;;;;;;3.60;1.70;;;;;;;22.63;70.53;101162.00;5033828;28;20113;-73
2022/06/30 06:53:43;;;;;;;6.10;2.60;;;;;;;22.87;70.52;101157.59;5031396;28;20104;-73
2022/06/30 06:56:08;;;;;;;1.70;1.33;;;;;;;23.37;70.63;101165.50;5036860;28;20049;-73
2022/06/30 06:58:33;;;;;;;3.75;2.00;;;;;;;23.59;70.29;101156.94;5038492;28;20026;-73
2022/06/30 07:01:00;;;;;;;5.72;1.67;;;;;;;23.67;70.27;101158.47;5036897;28;20841;-73
2022/06/30 07:03:25;;;;;;;2.95;1.75;;;;;;;24.05;69.14;101147.34;5036084;28;20025;-73
2022/06/30 07:05:51;;;;;;;3.30;1.38;;;;;;;24.54;68.03;101156.09;5034684;28;20103;-73
2022/06/30 07:08:16;;;;;;;2.53;1.60;;;;;;;24.77;67.08;101149.00;5036469;28;20033;-74
2022/06/30 07:10:42;;;;;;;6.07;2.13;;;;;;;24.60;66.72;101152.41;5019423;28;20021;-73
2022/06/30 07:13:07;;;;;;;3.45;2.00;;;;;;;24.01;68.04;101167.72;5037715;28;20534;-73
2022/06/30 07:15:33;;;;;;;3.60;1.75;;;;;;;24.34;67.62;101172.56;5037862;28;20078;-73
2022/06/30 07:18:01;;;;;;;2.38;1.63;;;;;;;24.44;68.01;101155.81;5034318;28;20036;-73
2022/06/30 07:20:26;;;;;;;3.08;2.30;;;;;;;24.26;67.27;101164.00;5034785;28;20025;-73
2022/06/30 07:22:51;;;;;;;5.13;2.63;;;;;;;23.64;69.01;101159.75;5020624;28;20075;-73
2022/06/30 07:25:17;;;;;;;3.00;1.95;;;;;;;23.31;70.13;101147.56;5035386;28;20041;-74
2022/06/30 07:27:42;;;;;;;3.95;2.10;;;;;;;23.97;71.15;101172.75;5015718;28;20033;-73
2022/06/30 07:30:08;;;;;;;2.63;1.50;;;;;;;25.08;67.30;101180.16;5019245;28;20143;-73
2022/06/30 07:32:35;;;;;;;3.63;2.30;;;;;;;25.58;66.88;101190.38;5034833;28;20036;-73
2022/06/30 07:35:00;;;;;;;4.93;2.38;;;;;;;25.51;65.38;101170.78;5037265;28;20033;-73
2022/06/30 07:37:26;;;;;;;3.42;2.45;;;;;;;25.76;64.75;101183.97;5032413;28;20100;-73
2022/06/30 07:39:51;;;;;;;3.35;1.88;;;;;;;25.44;65.48;101187.13;5039335;28;20013;-73
2022/06/30 07:42:17;;;;;;;2.58;2.15;;;;;;;24.54;68.06;101169.56;5033084;28;20040;-73
2022/06/30 07:44:43;;;;;;;3.00;1.80;;;;;;;24.33;69.88;101183.63;5034270;28;20052;-73
2022/06/30 07:47:09;;;;;;;4.25;2.08;;;;;;;24.36;70.59;101175.03;5036567;28;20025;-73
2022/06/30 07:49:34;;;;;;;2.50;2.10;;;;;;;24.26;71.10;101170.25;5036303;28;20968;-73
2022/06/30 07:52:00;;;;;;;2.42;2.22;;;;;;;24.45;70.38;101179.03;5031552;28;20543;-73
2022/06/30 07:54:25;;;;;;;2.42;1.90;;;;;;;25.07;69.09;101180.44;5038470;28;20037;-73
2022/06/30 07:56:51;;;;;;;4.32;2.50;;;;;;;25.22;67.94;101167.25;5032022;28;20052;-73
2022/06/30 07:59:16;;;;;;;2.58;2.08;;;;;;;25.86;66.37;101180.59;5016426;28;20029;-73
2022/06/30 08:01:42;;;;;;;2.35;1.90;;;;;;;25.86;67.08;101184.13;5035759;28;20097;-73
2022/06/30 08:04:07;;;;;;;2.67;2.00;;;;;;;26.70;64.44;101173.56;5039644;28;20037;-73
2022/06/30 08:06:33;;;;;;;6.00;2.20;;;;;;;27.03;64.17;101176.19;5038022;28;20033;-73
2022/06/30 08:08:58;;;;;;;2.50;1.85;;;;;;;27.41;63.66;101181.78;5035396;28;20040;-73
2022/06/30 08:11:24;;;;;;;8.43;2.38;;;;;;;27.31;63.22;101181.66;5016226;28;20041;-73
2022/06/30 08:13:49;;;;;;;3.17;1.73;;;;;;;27.41;63.13;101176.34;5037764;28;20042;-73
2022/06/30 08:16:15;;;;;;;5.25;2.42;;;;;;;27.67;63.23;101177.44;5035235;28;20025;-73
2022/06/30 08:18:42;;;;;;;9.48;2.45;;;;;;;27.54;62.10;101167.00;5039522;28;20176;-73
2022/06/30 08:21:07;;;;;;;5.20;2.78;;;;;;;27.76;62.26;101166.94;5039112;28;20059;-73
2022/06/30 08:23:33;;;;;;;3.35;1.85;;;;;;;28.21;62.42;101155.69;5033736;28;20058;-73
2022/06/30 08:25:58;;;;;;;3.63;2.60;;;;;;;28.57;60.53;101177.69;5038057;28;20090;-72
2022/06/30 08:28:23;;;;;;;6.03;2.35;;;;;;;28.44;60.94;101180.81;5039634;28;20037;-73
2022/06/30 08:30:50;;;;;;;4.32;2.45;;;;;;;27.99;61.99;101173.97;5043322;28;20048;-73
2022/06/30 08:33:16;;;;;;;3.33;2.17;;;;;;;28.14;62.02;101171.38;5040079;28;20111;-73
2022/06/30 08:35:41;;;;;;;3.42;2.20;;;;;;;28.43;60.87;101179.19;5038013;28;20037;-73
2022/06/30 08:38:06;;;;;;;2.88;1.85;;;;;;;28.66;60.99;101175.28;5041730;28;20088;-73
2022/06/30 08:43:18;;;;;;;3.40;2.13;;;;;;;29.62;58.70;101170.47;5040062;28;20036;-73
2022/06/30 08:45:44;;;;;;;5.78;2.15;;;;;;;29.43;58.37;101160.09;5039000;28;20430;-73
2022/06/30 08:48:10;;;;;;;3.28;2.58;;;;;;;29.15;59.44;101166.81;5036603;28;20085;-73
2022/06/30 08:50:37;;;;;;;4.43;2.63;;;;;;;28.47;61.68;101169.44;5035743;28;20471;-73
2022/06/30 08:53:03;;;;;;;4.10;2.30;;;;;;;29.59;60.29;101174.53;5036865;28;20041;-73
2022/06/30 08:55:30;;;;;;;3.72;2.55;;;;;;;29.99;57.72;101167.53;5041048;28;20029;-73
2022/06/30 08:58:04;;;;;;;3.45;2.00;;;;;;;30.08;57.09;101168.63;5037312;28;20033;-73
2022/06/30 09:00:29;;;;;;;2.40;2.03;;;;;;;30.60;57.63;101161.22;5039145;28;20013;-73
2022/06/30 09:02:55;;;;;;;4.93;2.30;;;;;;;30.70;56.02;101157.63;5042296;28;20029;-73
2022/06/30 09:05:20;;;;;;;3.60;2.45;;;;;;;30.75;56.30;101174.78;5042465;28;20530;-73
2022/06/30 09:07:46;;;;;;;5.15;2.50;;;;;;;31.60;54.96;101162.13;5039261;28;20025;-73
2022/06/30 09:10:11;;;;;;;3.58;2.47;;;;;;;31.46;54.80;101167.38;5041581;28;20405;-73
2022/06/30 09:12:37;;;;;;;3.05;2.03;;;;;;;31.37;55.51;101160.88;5044380;28;20081;-73
2022/06/30 09:15:03;;;;;;;3.38;2.78;;;;;;;31.41;54.35;101155.69;5038230;28;20036;-73
2022/06/30 09:17:30;;;;;;;4.78;2.58;;;;;;;31.74;54.51;101165.03;5041157;28;20396;-73
2022/06/30 09:20:00;;;;;;;2.60;2.00;;;;;;;32.27;53.98;101167.88;5038535;28;20025;-73
2022/06/30 09:22:34;;;;;;;3.63;2.10;;;;;;;32.02;54.11;101168.91;5036525;28;20048;-73
2022/06/30 09:25:02;;;;;;;3.00;2.03;;;;;;;31.90;53.30;101146.59;5038420;28;20689;-72
2022/06/30 09:27:30;;;;;;;3.30;2.17;;;;;;;31.58;53.99;101166.25;5035939;28;20025;-72
2022/06/30 09:30:04;;;;;;;3.63;2.40;;;;;;;30.98;55.36;101164.34;5033091;28;20079;-73
2022/06/30 09:32:30;;;;;;;3.35;2.47;;;;;;;31.04;53.96;101152.34;5036696;28;20017;-72
2022/06/30 09:35:08;;;;;;;2.55;1.85;;;;;;;31.78;54.14;101168.81;5032528;28;20037;-72
2022/06/30 09:37:34;;;;;;;3.30;2.22;;;;;;;31.03;54.68;101150.72;5032497;28;20025;-72
2022/06/30 09:39:59;;;;;;;3.85;2.30;;;;;;;30.48;55.07;101160.69;5048226;28;20112;-72
2022/06/30 09:42:41;;;;;;;2.78;2.15;;;;;;;31.79;53.67;101159.50;5040732;28;20492;-72
2022/06/30 09:45:10;;;;;;;5.28;2.55;;;;;;;31.29;53.86;101177.81;5044124;28;20096;-72
2022/06/30 09:47:36;;;;;;;3.33;2.53;;;;;;;30.37;55.46;101168.06;5040121;28;20021;-72
2022/06/30 09:50:07;;;;;;;4.95;2.30;;;;;;;31.19;54.42;101167.81;5043376;28;20501;-73
2022/06/30 09:52:33;;;;;;;3.63;2.63;;;;;;;31.32;54.46;101174.56;5037945;28;20041;-72
2022/06/30 09:55:04;;;;;;;3.50;2.03;;;;;;;31.85;53.71;101166.56;5043066;28;20048;-72
2022/06/30 09:57:43;;;;;;;3.15;2.03;;;;;;;32.60;52.48;101179.03;5041832;28;20025;-72
2022/06/30 10:00:15;;;;;;;4.40;2.30;;;;;;;31.85;54.05;101172.03;5042708;28;20044;-72
2022/06/30 10:02:48;;;;;;;3.75;2.45;;;;;;;31.49;54.21;101183.22;5042259;28;20029;-72
2022/06/30 10:05:16;;;;;;;4.40;2.75;;;;;;;32.42;51.52;101182.47;5032443;28;20430;-72
2022/06/30 10:07:42;;;;;;;5.18;2.40;;;;;;;30.78;55.92;101158.97;5044349;28;20488;-72
2022/06/30 10:10:10;;;;;;;2.88;2.55;;;;;;;31.93;54.06;101168.69;5039805;28;20068;-72
2022/06/30 10:12:36;;;;;;;3.13;2.40;;;;;;;32.29;53.39;101170.28;5041175;28;20465;-73
2022/06/30 10:15:03;;;;;;;8.63;3.17;;;;;;;31.65;54.11;101150.38;5039016;28;20033;-73
2022/06/30 10:17:31;;;;;;;3.60;3.05;;;;;;;31.74;53.17;101156.84;5029880;28;20033;-73
2022/06/30 10:19:57;;;;;;;3.35;2.05;;;;;;;32.05;54.46;101170.25;5033928;28;20025;-73
2022/06/30 10:22:26;;;;;;;3.83;2.85;;;;;;;31.26;54.53;101164.78;5034918;28;20461;-73
2022/06/30 10:24:53;;;;;;;9.82;3.42;;;;;;;30.60;56.12;101158.47;5033413;28;20102;-72
2022/06/30 10:27:21;;;;;;;2.75;2.53;;;;;;;31.53;54.37;101167.06;5037288;28;20072;-73
2022/06/30 10:29:57;;;;;;;2.90;2.50;;;;;;;32.33;54.77;101160.44;5030336;28;20013;-73
2022/06/30 10:32:28;;;;;;;3.08;2.50;;;;;;;31.82;54.13;101155.44;5033377;28;20010;-72
2022/06/30 10:35:11;;;;;;;2.63;2.42;;;;;;;32.16;53.39;101160.84;5042645;28;20048;-72
2022/06/30 10:37:46;;;;;;;5.00;2.70;;;;;;;32.43;51.91;101151.31;5045350;28;20630;-72
2022/06/30 10:40:36;;;;;;;3.85;2.63;;;;;;;32.30;53.22;101153.63;5043818;28;20032;-72
2022/06/30 10:43:02;;;;;;;;;;;;;;;33.54;52.08;101156.47;5043946;28;20071;-72
2022/06/30 10:45:30;;;;;;;3.10;2.03;;;;;;;34.58;49.49;101156.31;5040383;28;19956;-72
2022/06/30 10:48:03;;;;;;;2.60;2.10;;;;;;;34.62;49.41;101149.13;5040360;28;20035;-73
2022/06/30 10:50:42;;;;;;;3.85;2.20;;;;;;;35.08;48.59;101150.91;5037020;28;20535;-73
2022/06/30 10:53:09;;;;;;;4.70;3.22;;;;;;;33.48;49.72;101130.28;5033599;28;20021;-73
2022/06/30 10:55:53;;;;;;;3.03;2.33;;;;;;;34.72;49.22;101139.91;5040027;28;20440;-73
2022/06/30 10:58:22;;;;;;;4.88;2.70;;;;;;;35.26;47.90;101140.13;5031596;28;20033;-73
2022/06/30 11:01:13;;;;;;;3.38;2.47;;;;;;;35.01;47.96;101136.81;5037898;28;20102;-72
2022/06/30 11:03:38;;;;;;;4.07;2.78;;;;;;;35.10;48.05;101145.94;5040471;28;20082;-72
2022/06/30 11:06:09;;;;;;;4.55;3.03;;;;;;;34.59;47.01;101125.88;5042416;28;20112;-72
2022/06/30 11:08:50;;;;;;;3.28;2.75;;;;;;;34.63;46.67;101130.78;5028180;28;20086;-73
2022/06/30 11:11:22;;;;;;;4.75;3.10;;;;;;;34.71;47.52;101141.84;5038444;28;20025;-73
2022/06/30 11:14:11;;;;;;;4.43;3.15;;;;;;;34.26;47.67;101127.91;5037246;28;20075;-73
2022/06/30 11:16:39;;;;;;;4.35;3.20;;;;;;;34.17;46.81;101138.75;5042696;28;20017;-73
2022/06/30 11:19:14;;;;;;;3.47;2.72;;;;;;;35.83;44.83;101130.25;5035893;28;20025;-73
2022/06/30 11:21:46;;;;;;;4.13;2.90;;;;;;;34.89;45.07;101133.81;5040127;28;20109;-73
2022/06/30 11:24:14;;;;;;;3.90;2.67;;;;;;;36.11;45.09;101130.06;5037049;28;20044;-72
2022/06/30 11:29:28;;;;;;;2.65;2.17;;;;;;;35.73;46.41;101124.19;5034916;28;20091;-71
2022/06/30 11:32:02;;;;;;;3.95;2.42;;;;;;;38.13;44.44;101118.09;5034675;28;20444;-71
2022/06/30 11:34:28;;;;;;;3.35;2.30;;;;;;;38.79;40.68;101112.09;5031543;28;20625;-72
2022/06/30 11:36:54;;;;;;;3.78;2.67;;;;;;;37.36;40.84;101107.72;5038393;28;20577;-72
2022/06/30 11:39:23;;;;;;;3.80;3.45;;;;;;;37.21;41.89;101109.03;5038651;28;20036;-72
2022/06/30 11:41:57;;;;;;;4.50;2.90;;;;;;;35.90;44.48;101113.31;5037753;28;20026;-72
2022/06/30 11:44:35;;;;;;;4.18;2.67;;;;;;;34.98;46.76;101105.34;5039102;28;20116;-72
2022/06/30 11:47:04;;;;;;;8.18;3.13;;;;;;;34.27;47.74;101102.13;5040985;28;20037;-72
2022/06/30 11:49:42;;;;;;;2.85;2.38;;;;;;;33.15;49.69;101097.41;5036477;28;20048;-72
2022/06/30 11:52:15;;;;;;;3.92;2.72;;;;;;;32.99;51.28;101090.50;5039171;28;20033;-72
2022/06/30 11:54:43;;;;;;;3.53;2.08;;;;;;;33.46;51.03;101071.50;5035112;28;20013;-71
2022/06/30 11:57:08;;;;;;;3.38;2.83;;;;;;;34.39;48.77;101098.91;5032824;28;20604;-72
2022/06/30 11:59:34;;;;;;;2.60;2.10;;;;;;;35.88;47.61;101101.84;5040617;28;20151;-72
2022/06/30 12:02:06;;;;;;;2.78;2.38;;;;;;;36.71;44.45;101114.94;5036485;28;20057;-72
2022/06/30 12:04:33;;;;;;;6.10;2.97;;;;;;;35.57;45.07;101099.84;5033026;28;20507;-72